Time;durP1;ratioP1;P1;durP2;ratioP2;P2;SDS_P1;SDS_P2;PMS_P1;PMS_P2;Temp;Humidity;BMP_temperature;BMP_pressure;BME280_temperature;BME280_humidity;BME280_pressure;Samples;Min_cycle;Max_cycle;Signal;HPM_P1;HPM_P2
2022/02/25 00:01:58;;;;;;;5.65;1.05;;;3.80;99.90;;;;;;5042196;28;20371;-58
2022/02/25 00:04:23;;;;;;;2.53;1.60;;;3.90;99.90;;;;;;5042505;28;20402;-58
2022/02/25 00:06:49;;;;;;;6.07;1.25;;;3.90;99.90;;;;;;5044338;28;20343;-58
2022/02/25 00:09:14;;;;;;;6.40;2.05;;;3.90;99.90;;;;;;5041794;28;20021;-58
2022/02/25 00:11:40;;;;;;;2.60;1.33;;;3.90;99.90;;;;;;5042506;28;20087;-59
2022/02/25 00:14:05;;;;;;;4.93;1.73;;;3.90;99.90;;;;;;5041681;28;20087;-59
2022/02/25 00:16:31;;;;;;;6.93;1.95;;;3.90;99.90;;;;;;5041013;28;20036;-59
2022/02/25 00:18:56;;;;;;;3.65;2.03;;;3.80;99.90;;;;;;5038075;28;20464;-59
2022/02/25 00:21:22;;;;;;;3.72;1.80;;;3.70;99.90;;;;;;5037017;28;20033;-59
2022/02/25 00:23:48;;;;;;;3.97;1.40;;;3.70;99.90;;;;;;5042007;28;20070;-58
2022/02/25 00:26:13;;;;;;;6.07;1.65;;;3.80;99.90;;;;;;5043381;28;20099;-59
2022/02/25 00:28:39;;;;;;;5.22;1.30;;;3.80;99.90;;;;;;5042370;28;20513;-59
2022/02/25 00:31:05;;;;;;;4.10;1.83;;;3.70;99.90;;;;;;5035589;28;20065;-59
2022/02/25 00:33:30;;;;;;;3.95;1.55;;;3.70;99.90;;;;;;5040791;28;20029;-59
2022/02/25 00:35:56;;;;;;;6.75;2.03;;;3.70;99.90;;;;;;5041311;28;20116;-59
2022/02/25 00:38:21;;;;;;;3.17;1.25;;;3.70;99.90;;;;;;5040041;28;20361;-59
2022/02/25 00:40:47;;;;;;;2.58;1.15;;;3.80;99.90;;;;;;5042093;28;20053;-59
2022/02/25 00:43:13;;;;;;;1.92;1.23;;;3.80;99.90;;;;;;5042430;28;20036;-59
2022/02/25 00:45:38;;;;;;;4.72;1.55;;;3.80;99.90;;;;;;5042411;28;20039;-59
2022/02/25 00:48:04;;;;;;;4.20;2.50;;;3.80;99.90;;;;;;5039712;28;20029;-59
2022/02/25 00:50:30;;;;;;;;;;;3.80;99.90;;;;;;5041434;28;20402;-59
2022/02/25 00:52:56;;;;;;;3.42;1.27;;;3.70;99.90;;;;;;5036868;28;19917;-59
2022/02/25 00:55:22;;;;;;;4.95;1.45;;;3.70;99.90;;;;;;5043594;28;20048;-59
2022/02/25 00:57:49;;;;;;;3.22;1.30;;;3.60;99.90;;;;;;5043196;28;20033;-59
2022/02/25 01:00:19;;;;;;;4.38;1.67;;;3.60;99.90;;;;;;5041994;28;20101;-59
2022/02/25 01:02:46;;;;;;;3.60;1.60;;;3.70;99.90;;;;;;5043082;28;20021;-59
2022/02/25 01:05:11;;;;;;;5.22;1.33;;;3.70;99.90;;;;;;5044670;28;20562;-59
2022/02/25 01:07:38;;;;;;;6.45;1.20;;;3.70;99.90;;;;;;5039986;28;20450;-59
2022/02/25 01:10:05;;;;;;;4.40;0.98;;;3.70;99.90;;;;;;5044538;28;20124;-59
2022/02/25 01:12:31;;;;;;;2.80;1.13;;;3.70;99.90;;;;;;5043451;28;20029;-59
2022/02/25 01:14:56;;;;;;;4.30;1.05;;;3.70;99.90;;;;;;5044557;28;20039;-59
2022/02/25 01:17:23;;;;;;;5.57;1.35;;;3.70;99.90;;;;;;5043074;28;20059;-59
2022/02/25 01:19:49;;;;;;;2.22;1.30;;;3.70;99.90;;;;;;5035244;28;20432;-59
2022/02/25 01:22:14;;;;;;;3.67;1.25;;;3.70;99.90;;;;;;5038283;28;20031;-59
2022/02/25 01:24:41;;;;;;;6.45;1.33;;;3.70;99.90;;;;;;5035992;28;20037;-59
2022/02/25 01:27:07;;;;;;;6.90;1.27;;;3.70;99.90;;;;;;5041626;28;20037;-59
2022/02/25 01:29:33;;;;;;;4.57;0.90;;;3.70;99.90;;;;;;5047615;28;20025;-59
2022/02/25 01:31:59;;;;;;;6.53;1.15;;;3.60;99.90;;;;;;5044103;28;20025;-59
2022/02/25 01:34:25;;;;;;;7.05;1.50;;;3.60;99.90;;;;;;5044130;28;20485;-59
2022/02/25 01:36:50;;;;;;;11.80;1.98;;;3.50;99.90;;;;;;5045694;28;20028;-59
2022/02/25 01:39:16;;;;;;;3.10;0.73;;;3.60;99.90;;;;;;5041728;28;20088;-58
2022/02/25 01:41:41;;;;;;;5.13;1.20;;;3.60;99.90;;;;;;5041730;28;20486;-59
2022/02/25 01:44:20;;;;;;;3.08;1.05;;;3.60;99.90;;;;;;5043427;28;20029;-59
2022/02/25 01:46:55;;;;;;;3.85;1.77;;;3.70;99.90;;;;;;5041352;28;20029;-59
2022/02/25 01:49:21;;;;;;;5.38;1.10;;;3.70;99.90;;;;;;5043895;28;20029;-59
2022/02/25 01:51:51;;;;;;;6.07;1.70;;;3.70;99.90;;;;;;5042744;28;20039;-59
2022/02/25 01:54:17;;;;;;;3.83;0.80;;;3.70;99.90;;;;;;5044553;28;20951;-58
2022/02/25 01:56:43;;;;;;;1.52;0.82;;;3.70;99.90;;;;;;5039434;28;20114;-58
2022/02/25 01:59:09;;;;;;;;;;;3.70;99.90;;;;;;5045982;28;20037;-59
2022/02/25 02:01:35;;;;;;;3.50;1.08;;;3.70;99.90;;;;;;5045102;28;20357;-59
2022/02/25 02:04:01;;;;;;;3.95;1.30;;;3.70;99.90;;;;;;5040453;28;20032;-59
2022/02/25 02:06:28;;;;;;;4.57;1.10;;;3.60;99.90;;;;;;5043425;28;20035;-59
2022/02/25 02:08:54;;;;;;;3.83;1.15;;;3.60;99.90;;;;;;5043963;28;20627;-59
2022/02/25 02:11:36;;;;;;;5.10;1.55;;;3.60;99.90;;;;;;5040334;28;20037;-59
2022/02/25 02:14:05;;;;;;;3.10;0.80;;;3.70;99.90;;;;;;5042394;28;20386;-59
2022/02/25 02:16:31;;;;;;;5.20;1.45;;;3.70;99.90;;;;;;5044107;28;20162;-59
2022/02/25 02:18:57;;;;;;;;;;;3.70;99.90;;;;;;5042990;28;20041;-59
2022/02/25 02:21:26;;;;;;;5.53;1.73;;;3.80;99.90;;;;;;5043936;28;19972;-59
2022/02/25 02:23:52;;;;;;;3.75;1.67;;;3.80;99.90;;;;;;5041931;28;20025;-59
2022/02/25 02:26:19;;;;;;;5.03;1.50;;;3.80;99.90;;;;;;5042316;28;20743;-58
2022/02/25 02:28:44;;;;;;;9.80;1.70;;;3.90;99.90;;;;;;5042873;28;20036;-59
2022/02/25 02:31:10;;;;;;;5.68;1.35;;;3.90;99.90;;;;;;5034995;28;20072;-59
2022/02/25 02:33:36;;;;;;;3.92;1.60;;;3.90;99.90;;;;;;5042849;28;20323;-59
2022/02/25 02:36:03;;;;;;;6.00;1.45;;;3.90;99.90;;;;;;5044276;28;20033;-59
2022/02/25 02:38:29;;;;;;;5.10;3.58;;;3.80;99.90;;;;;;5044438;28;20413;-59
2022/02/25 02:40:55;;;;;;;3.33;1.60;;;3.70;99.90;;;;;;5042738;28;20040;-59
2022/02/25 02:43:20;;;;;;;5.32;1.38;;;3.70;99.90;;;;;;5041731;28;20375;-59
2022/02/25 02:45:46;;;;;;;4.45;1.50;;;3.60;99.90;;;;;;5039941;28;20033;-58
2022/02/25 02:48:11;;;;;;;6.70;1.83;;;3.60;99.90;;;;;;5035458;28;20505;-59
2022/02/25 02:50:37;;;;;;;3.20;1.98;;;3.50;99.90;;;;;;5042207;28;20639;-59
2022/02/25 02:53:02;;;;;;;4.50;2.70;;;3.50;99.90;;;;;;5043836;28;20156;-58
2022/02/25 02:55:28;;;;;;;4.10;1.80;;;3.50;99.90;;;;;;5044109;28;20024;-59
2022/02/25 02:57:54;;;;;;;3.55;1.73;;;3.40;99.90;;;;;;5042961;28;20048;-59
2022/02/25 03:00:19;;;;;;;6.00;1.52;;;3.40;99.90;;;;;;5045522;28;20013;-59
2022/02/25 03:02:45;;;;;;;7.45;1.70;;;3.40;99.90;;;;;;5041262;28;20035;-58
2022/02/25 03:05:10;;;;;;;5.18;1.40;;;3.40;99.90;;;;;;5045642;28;20021;-59
2022/02/25 03:07:37;;;;;;;8.80;1.25;;;3.30;99.90;;;;;;5041054;28;20039;-59
2022/02/25 03:10:04;;;;;;;5.00;1.52;;;3.30;99.90;;;;;;5045578;28;20050;-59
2022/02/25 03:12:30;;;;;;;5.85;1.88;;;3.20;99.90;;;;;;5040966;28;20635;-59
2022/02/25 03:14:55;;;;;;;5.38;2.00;;;3.20;99.90;;;;;;5042297;28;20036;-59
2022/02/25 03:17:21;;;;;;;6.82;1.75;;;3.20;99.90;;;;;;5043092;28;20048;-58
2022/02/25 03:19:46;;;;;;;2.83;1.48;;;3.20;99.90;;;;;;5040900;28;20360;-59
2022/02/25 03:22:12;;;;;;;3.85;1.38;;;3.10;99.90;;;;;;5042331;28;20029;-58
2022/02/25 03:24:38;;;;;;;3.83;1.40;;;3.10;99.90;;;;;;5043850;28;20024;-59
2022/02/25 03:27:04;;;;;;;5.13;1.88;;;3.10;99.90;;;;;;5043770;28;20048;-59
2022/02/25 03:29:29;;;;;;;5.70;1.23;;;3.10;99.90;;;;;;5041512;28;20041;-59
2022/02/25 03:31:55;;;;;;;8.77;2.70;;;3.00;99.90;;;;;;5042833;28;20021;-59
2022/02/25 03:34:21;;;;;;;5.82;1.80;;;3.00;99.90;;;;;;5042087;28;20551;-59
2022/02/25 03:36:46;;;;;;;4.57;2.15;;;3.00;99.90;;;;;;5039362;28;20088;-59
2022/02/25 03:39:12;;;;;;;3.30;1.58;;;3.00;99.90;;;;;;5040688;28;20393;-59
2022/02/25 03:41:37;;;;;;;6.30;1.90;;;3.00;99.90;;;;;;5044459;28;20478;-59
2022/02/25 03:44:03;;;;;;;7.90;1.70;;;2.90;99.90;;;;;;5040541;28;20110;-59
2022/02/25 03:46:29;;;;;;;3.05;1.58;;;2.90;99.90;;;;;;5041371;28;20033;-59
2022/02/25 03:48:54;;;;;;;6.28;1.95;;;2.90;99.90;;;;;;5039501;28;20029;-59
2022/02/25 03:51:21;;;;;;;5.18;2.08;;;2.90;99.90;;;;;;5040461;28;20025;-58
2022/02/25 03:53:48;;;;;;;4.15;1.60;;;2.80;99.90;;;;;;5040746;28;20040;-59
2022/02/25 03:56:15;;;;;;;4.25;1.77;;;2.90;99.90;;;;;;5043331;28;20310;-59
2022/02/25 03:58:41;;;;;;;4.05;2.22;;;2.80;99.90;;;;;;5043414;28;20549;-59
2022/02/25 04:01:06;;;;;;;8.05;2.13;;;2.80;99.90;;;;;;5037928;28;20144;-59
2022/02/25 04:03:32;;;;;;;5.15;2.47;;;2.80;99.90;;;;;;5042112;28;20041;-59
2022/02/25 04:05:57;;;;;;;3.50;2.05;;;2.80;99.90;;;;;;5045438;28;20060;-58
2022/02/25 04:08:23;;;;;;;6.70;1.90;;;2.80;99.90;;;;;;5040991;28;20074;-59
2022/02/25 04:10:48;;;;;;;6.28;2.33;;;2.80;99.90;;;;;;5041650;28;20036;-59
2022/02/25 04:13:14;;;;;;;8.98;2.10;;;2.90;99.90;;;;;;5044178;28;20039;-58
2022/02/25 04:15:39;;;;;;;7.32;2.63;;;2.90;99.90;;;;;;5038769;28;20033;-59
2022/02/25 04:18:05;;;;;;;6.07;2.30;;;3.00;99.90;;;;;;5043500;28;20044;-59
2022/02/25 04:20:31;;;;;;;3.88;2.28;;;3.10;99.90;;;;;;5043196;28;20025;-59
2022/02/25 04:22:56;;;;;;;4.18;2.20;;;3.10;99.90;;;;;;5042347;28;20029;-59
2022/02/25 04:25:22;;;;;;;12.52;3.00;;;3.10;99.90;;;;;;5037713;28;20251;-59
2022/02/25 04:27:47;;;;;;;10.32;2.65;;;3.20;99.90;;;;;;5042774;28;20174;-58
2022/02/25 04:30:13;;;;;;;11.65;2.88;;;3.20;99.90;;;;;;5038368;28;22079;-58
2022/02/25 04:32:38;;;;;;;7.18;1.80;;;3.30;99.90;;;;;;5038731;28;20385;-59
2022/02/25 04:35:05;;;;;;;4.32;2.55;;;3.30;99.90;;;;;;5041050;28;20037;-58
2022/02/25 04:37:30;;;;;;;;;;;3.40;99.90;;;;;;5044708;28;20037;-58
2022/02/25 04:39:56;;;;;;;8.00;2.42;;;3.40;99.90;;;;;;5041884;28;20274;-58
2022/02/25 04:42:23;;;;;;;6.70;2.20;;;3.40;99.90;;;;;;5042147;28;20083;-58
2022/02/25 04:44:48;;;;;;;7.32;2.58;;;3.40;99.90;;;;;;5040973;28;20036;-59
2022/02/25 04:47:14;;;;;;;10.05;2.97;;;3.50;99.90;;;;;;5035710;28;20025;-58
2022/02/25 04:49:39;;;;;;;3.97;3.13;;;3.50;99.90;;;;;;5040551;28;20111;-58
2022/02/25 04:52:06;;;;;;;5.22;2.10;;;3.50;99.90;;;;;;5041486;28;20052;-59
2022/02/25 04:54:32;;;;;;;9.90;3.40;;;3.50;99.90;;;;;;5042869;28;20041;-58
2022/02/25 04:56:58;;;;;;;6.72;1.95;;;3.50;99.90;;;;;;5040548;28;20032;-58
2022/02/25 04:59:23;;;;;;;8.73;1.95;;;3.50;99.90;;;;;;5039028;28;20037;-58
2022/02/25 05:01:49;;;;;;;7.05;2.65;;;3.60;99.90;;;;;;5042844;28;20025;-58
2022/02/25 05:04:14;;;;;;;10.55;2.47;;;3.60;99.90;;;;;;5042278;28;20029;-58
2022/02/25 05:06:40;;;;;;;4.90;1.98;;;3.60;99.90;;;;;;5044656;28;20029;-59
2022/02/25 05:09:05;;;;;;;6.72;1.85;;;3.60;99.90;;;;;;5046711;28;20045;-58
2022/02/25 05:11:31;;;;;;;7.60;2.25;;;3.70;99.90;;;;;;5041083;28;20124;-59
2022/02/25 05:13:57;;;;;;;10.70;3.22;;;3.70;99.90;;;;;;5041425;28;20033;-58
2022/02/25 05:21:51;;;;;;;5.70;1.80;;;3.80;99.90;;;;;;5047008;28;20098;-54
2022/02/25 05:24:17;;;;;;;3.95;1.65;;;3.80;99.90;;;;;;5045845;28;20461;-56
2022/02/25 05:26:42;;;;;;;4.05;1.75;;;3.80;99.90;;;;;;5048205;28;20062;-55
2022/02/25 05:29:09;;;;;;;6.35;1.73;;;3.80;99.90;;;;;;5043689;28;20036;-55
2022/02/25 05:31:34;;;;;;;7.43;1.77;;;3.80;99.90;;;;;;5047330;28;20115;-54
2022/02/25 05:34:00;;;;;;;5.55;3.95;;;3.90;99.90;;;;;;5038161;28;20100;-52
2022/02/25 05:36:25;;;;;;;12.85;2.63;;;3.90;99.90;;;;;;5042193;28;20035;-54
2022/02/25 05:38:51;;;;;;;4.47;1.77;;;3.90;99.90;;;;;;5045780;28;20063;-55
2022/02/25 05:41:17;;;;;;;4.20;1.55;;;3.90;99.90;;;;;;5045824;28;20108;-51
2022/02/25 05:43:43;;;;;;;;;;;4.00;99.90;;;;;;5045038;28;20504;-52
2022/02/25 05:46:09;;;;;;;10.60;1.90;;;3.90;99.90;;;;;;5044764;28;19915;-55
2022/02/25 05:48:34;;;;;;;6.30;1.17;;;3.90;99.90;;;;;;5045647;28;20461;-54
2022/02/25 05:51:00;;;;;;;4.40;1.17;;;3.80;99.90;;;;;;5045257;28;20532;-54
2022/02/25 05:53:25;;;;;;;2.60;1.75;;;3.80;99.90;;;;;;5042509;28;20032;-53
2022/02/25 05:55:51;;;;;;;5.45;1.75;;;3.70;99.90;;;;;;5041709;28;20543;-54
2022/02/25 05:58:16;;;;;;;6.53;1.50;;;3.60;99.90;;;;;;5042728;28;20060;-55
2022/02/25 06:00:42;;;;;;;7.25;2.20;;;3.60;99.90;;;;;;5042695;28;20032;-53
2022/02/25 06:03:08;;;;;;;7.90;1.67;;;3.60;99.90;;;;;;5045668;28;20052;-57
2022/02/25 06:05:33;;;;;;;3.97;1.08;;;3.60;99.90;;;;;;5042170;28;20083;-55
2022/02/25 06:08:00;;;;;;;6.20;1.45;;;3.50;99.90;;;;;;5045393;28;20075;-55
2022/02/25 06:10:26;;;;;;;10.63;1.52;;;3.60;99.90;;;;;;5041281;28;20115;-56
2022/02/25 06:12:52;;;;;;;;;;;3.60;99.90;;;;;;5045635;28;20021;-53
2022/02/25 06:15:17;;;;;;;8.63;1.70;;;3.60;99.90;;;;;;5042729;28;19913;-55
2022/02/25 06:17:45;;;;;;;11.13;1.40;;;3.50;99.90;;;;;;5044692;28;20032;-56
2022/02/25 06:20:11;;;;;;;10.43;1.92;;;3.50;99.90;;;;;;5045356;28;20065;-57
2022/02/25 06:22:37;;;;;;;5.45;1.58;;;3.60;99.90;;;;;;5045448;28;20029;-55
2022/02/25 06:25:03;;;;;;;7.75;1.67;;;3.50;99.90;;;;;;5043976;28;20446;-56
2022/02/25 06:27:28;;;;;;;12.95;2.63;;;3.50;99.90;;;;;;5043457;28;20040;-57
2022/02/25 06:29:54;;;;;;;12.82;1.98;;;3.50;99.90;;;;;;5045492;28;20029;-55
2022/02/25 06:32:19;;;;;;;8.30;1.55;;;3.50;99.90;;;;;;5039561;28;20505;-54
2022/02/25 06:34:45;;;;;;;9.48;2.17;;;3.60;99.90;;;;;;5043198;28;20483;-55
2022/02/25 06:37:10;;;;;;;12.85;1.98;;;3.60;99.90;;;;;;5045467;28;20060;-56
2022/02/25 06:39:36;;;;;;;12.07;3.55;;;3.60;99.90;;;;;;5045190;28;20017;-55
2022/02/25 06:42:02;;;;;;;8.40;1.58;;;3.60;99.90;;;;;;5043008;28;20028;-55
2022/02/25 06:44:27;;;;;;;12.05;2.38;;;3.60;99.90;;;;;;5043718;28;20029;-55
2022/02/25 06:46:53;;;;;;;5.82;1.70;;;3.50;99.90;;;;;;5043258;28;20261;-52
2022/02/25 06:49:18;;;;;;;8.70;1.95;;;3.60;99.90;;;;;;5044212;28;20029;-53
2022/02/25 06:51:44;;;;;;;5.30;1.45;;;3.60;99.90;;;;;;5044197;28;20029;-54
2022/02/25 06:54:09;;;;;;;14.05;2.58;;;3.60;99.90;;;;;;5044945;28;20032;-54
2022/02/25 06:56:35;;;;;;;19.35;4.25;;;3.60;99.90;;;;;;5044778;28;20033;-51
2022/02/25 06:59:01;;;;;;;9.75;2.00;;;3.60;99.90;;;;;;5044923;28;20425;-54
2022/02/25 07:01:26;;;;;;;6.22;2.20;;;3.60;99.90;;;;;;5047040;28;20030;-52
2022/02/25 07:03:52;;;;;;;6.38;2.72;;;3.60;99.90;;;;;;5047098;28;20071;-55
2022/02/25 07:06:23;;;;;;;7.35;1.90;;;3.60;99.90;;;;;;5046378;28;20029;-52
2022/02/25 07:08:50;;;;;;;9.48;2.20;;;3.60;99.90;;;;;;5046774;28;20067;-55
2022/02/25 07:11:16;;;;;;;9.85;2.88;;;3.60;99.90;;;;;;5046137;28;20033;-55
2022/02/25 07:13:41;;;;;;;12.43;2.45;;;3.70;99.90;;;;;;5047207;28;20378;-55
2022/02/25 07:16:07;;;;;;;6.78;2.55;;;3.80;99.90;;;;;;5042411;28;20478;-56
2022/02/25 07:18:33;;;;;;;10.15;1.30;;;3.70;99.90;;;;;;5042690;28;20028;-55
2022/02/25 07:20:58;;;;;;;12.02;3.58;;;3.80;99.90;;;;;;5036669;28;20036;-55
2022/02/25 07:23:25;;;;;;;7.45;3.08;;;3.80;99.90;;;;;;5043068;28;20469;-55
2022/02/25 07:25:50;;;;;;;10.77;2.20;;;3.80;99.90;;;;;;5043619;28;20359;-56
2022/02/25 07:28:16;;;;;;;7.93;2.03;;;3.90;99.90;;;;;;5041070;28;20033;-55
2022/02/25 07:30:41;;;;;;;9.57;2.50;;;3.90;99.90;;;;;;5043466;28;20155;-53
2022/02/25 07:33:07;;;;;;;10.73;2.50;;;3.90;99.90;;;;;;5042431;28;20168;-54
2022/02/25 07:35:32;;;;;;;7.30;2.13;;;4.00;99.90;;;;;;5043711;28;20044;-56
2022/02/25 07:38:00;;;;;;;10.60;2.63;;;4.10;99.90;;;;;;5045962;28;20025;-55
2022/02/25 07:40:26;;;;;;;8.45;1.73;;;4.10;99.90;;;;;;5043587;28;20038;-54
2022/02/25 07:42:52;;;;;;;12.55;1.60;;;4.10;99.90;;;;;;5042124;28;20041;-54
2022/02/25 07:45:18;;;;;;;18.42;2.20;;;4.10;99.90;;;;;;5042580;28;20112;-56
2022/02/25 07:47:44;;;;;;;9.25;2.90;;;4.20;99.90;;;;;;5040308;28;20032;-55
2022/02/25 07:50:11;;;;;;;8.63;1.90;;;4.20;99.90;;;;;;5045284;28;20446;-55
2022/02/25 07:52:36;;;;;;;14.00;5.13;;;4.30;99.90;;;;;;5045775;28;20033;-53
2022/02/25 07:55:02;;;;;;;9.55;2.00;;;4.30;99.90;;;;;;5042270;28;20501;-55
2022/02/25 07:57:28;;;;;;;9.50;2.78;;;4.40;99.90;;;;;;5043484;28;20498;-54
2022/02/25 07:59:53;;;;;;;6.32;2.63;;;4.40;99.90;;;;;;5044099;28;20048;-56
2022/02/25 08:02:19;;;;;;;8.02;1.73;;;4.50;99.90;;;;;;5042187;28;20043;-55
2022/02/25 08:04:44;;;;;;;9.35;1.80;;;4.50;99.90;;;;;;5042190;28;20394;-56
2022/02/25 08:07:10;;;;;;;5.90;1.65;;;4.50;99.90;;;;;;5040905;28;20025;-56
2022/02/25 08:09:35;;;;;;;9.15;2.83;;;4.60;99.90;;;;;;5042818;28;20508;-55
2022/02/25 08:12:02;;;;;;;12.50;2.13;;;4.70;99.90;;;;;;5041297;28;20029;-52
2022/02/25 08:14:27;;;;;;;;;;;4.70;99.90;;;;;;5043262;28;20036;-55
2022/02/25 08:16:53;;;;;;;11.77;3.20;;;4.80;99.90;;;;;;5043685;28;19923;-55
2022/02/25 08:19:18;;;;;;;8.55;1.60;;;4.80;99.90;;;;;;5043996;28;20052;-55
2022/02/25 08:21:44;;;;;;;4.93;1.15;;;4.90;99.90;;;;;;5039624;28;20057;-55
2022/02/25 08:24:09;;;;;;;7.72;1.42;;;4.90;99.90;;;;;;5041510;28;20098;-55
2022/02/25 08:26:35;;;;;;;6.85;1.67;;;5.00;99.90;;;;;;5042340;28;20547;-56
2022/02/25 08:29:01;;;;;;;11.25;1.60;;;5.00;99.90;;;;;;5042444;28;20293;-55
2022/02/25 08:31:27;;;;;;;13.80;2.25;;;5.10;99.90;;;;;;5041429;28;20071;-55
2022/02/25 08:33:52;;;;;;;8.18;1.70;;;5.10;99.90;;;;;;5043743;28;20033;-56
2022/02/25 08:36:18;;;;;;;11.93;1.85;;;5.10;99.90;;;;;;5043637;28;20033;-56
2022/02/25 08:38:44;;;;;;;6.68;1.35;;;5.20;99.90;;;;;;5043796;28;20025;-53
2022/02/25 08:41:10;;;;;;;13.75;2.45;;;5.20;99.80;;;;;;5044563;28;20098;-55
2022/02/25 08:43:36;;;;;;;16.90;3.05;;;5.20;99.90;;;;;;5047680;28;20036;-56
2022/02/25 08:46:02;;;;;;;13.73;3.17;;;5.20;99.90;;;;;;5045227;28;20036;-55
2022/02/25 08:48:28;;;;;;;5.60;1.48;;;5.30;99.90;;;;;;5047913;28;20052;-55
2022/02/25 08:50:54;;;;;;;8.52;1.40;;;5.40;99.70;;;;;;5043208;28;20091;-54
2022/02/25 08:53:19;;;;;;;;;;;5.50;99.40;;;;;;5045537;28;20037;-53
2022/02/25 08:55:45;;;;;;;9.07;1.90;;;5.50;99.30;;;;;;5047053;28;19908;-55
2022/02/25 08:58:10;;;;;;;11.73;2.47;;;5.50;98.90;;;;;;5047558;28;20021;-55
2022/02/25 09:00:36;;;;;;;14.15;1.85;;;5.50;98.90;;;;;;5044138;28;20033;-55
2022/02/25 09:03:01;;;;;;;7.13;1.33;;;5.50;99.20;;;;;;5046649;28;20435;-54
2022/02/25 09:05:27;;;;;;;12.63;1.30;;;5.60;99.30;;;;;;5047341;28;20112;-55
2022/02/25 09:07:55;;;;;;;5.22;0.93;;;5.60;98.90;;;;;;5046778;28;20537;-55
2022/02/25 09:10:21;;;;;;;7.10;1.70;;;5.70;98.80;;;;;;5043625;28;20124;-56
2022/02/25 09:12:48;;;;;;;6.22;1.92;;;5.80;98.70;;;;;;5046730;28;20105;-52
2022/02/25 09:15:26;;;;;;;9.02;1.60;;;5.90;98.90;;;;;;5044442;28;20508;-55
2022/02/25 09:17:57;;;;;;;9.30;2.05;;;5.90;98.50;;;;;;5043325;28;20110;-53
2022/02/25 09:20:24;;;;;;;5.00;1.38;;;6.00;98.20;;;;;;5045616;28;20061;-56
2022/02/25 09:22:50;;;;;;;11.30;2.25;;;6.00;98.30;;;;;;5045175;28;20024;-53
2022/02/25 09:25:16;;;;;;;;;;;6.00;98.10;;;;;;5044930;28;21726;-55
2022/02/25 09:27:41;;;;;;;5.15;1.63;;;6.10;98.40;;;;;;5045512;28;19966;-54
2022/02/25 09:30:09;;;;;;;3.55;1.45;;;6.10;98.30;;;;;;5045731;28;20033;-54
2022/02/25 09:32:35;;;;;;;8.48;1.65;;;6.20;98.30;;;;;;5041460;28;20517;-56
2022/02/25 09:35:01;;;;;;;6.28;1.73;;;6.30;98.00;;;;;;5046082;28;20064;-56
2022/02/25 09:37:27;;;;;;;9.35;1.45;;;6.40;97.70;;;;;;5040516;28;20056;-55
2022/02/25 09:39:53;;;;;;;9.27;1.65;;;6.50;97.80;;;;;;5045162;28;20021;-55
2022/02/25 09:42:20;;;;;;;;;;;6.70;97.90;;;;;;5045573;28;20029;-54
2022/02/25 09:44:45;;;;;;;11.02;2.35;;;6.70;97.40;;;;;;5048099;28;19917;-56
2022/02/25 09:47:13;;;;;;;8.68;2.45;;;6.60;97.30;;;;;;5043493;28;20452;-55
2022/02/25 09:49:38;;;;;;;7.40;1.35;;;6.50;97.40;;;;;;5041465;28;20036;-53
2022/02/25 09:52:06;;;;;;;6.70;1.77;;;6.50;97.50;;;;;;5044712;28;20092;-55
2022/02/25 09:54:31;;;;;;;8.43;2.05;;;6.40;97.50;;;;;;5046110;28;20060;-54
2022/02/25 09:56:57;;;;;;;7.50;1.65;;;6.30;97.50;;;;;;5043156;28;20171;-56
2022/02/25 09:59:22;;;;;;;12.40;2.22;;;6.20;97.80;;;;;;5043138;28;20030;-55
2022/02/25 10:01:49;;;;;;;11.85;2.95;;;6.20;98.00;;;;;;5042766;28;20537;-56
2022/02/25 10:04:19;;;;;;;6.43;1.70;;;6.10;98.00;;;;;;5043026;28;20025;-56
2022/02/25 10:06:45;;;;;;;9.55;2.13;;;6.20;98.20;;;;;;5042619;28;20043;-56
2022/02/25 10:09:11;;;;;;;;;;;6.40;98.20;;;;;;5048188;28;20032;-55
2022/02/25 10:12:09;;;;;;;10.50;2.63;;;6.60;97.80;;;;;;5045044;28;19913;-57
2022/02/25 10:14:53;;;;;;;13.13;3.42;;;6.80;97.50;;;;;;5040581;28;20466;-56
2022/02/25 10:17:24;;;;;;;25.10;4.18;;;6.90;97.10;;;;;;5043616;28;20029;-55
2022/02/25 10:19:52;;;;;;;8.77;2.30;;;6.90;96.90;;;;;;5042793;28;20059;-56
2022/02/25 10:22:38;;;;;;;9.10;1.88;;;7.00;97.00;;;;;;5044756;28;20108;-56
2022/02/25 10:25:09;;;;;;;24.55;3.63;;;6.90;96.70;;;;;;5044133;28;20025;-56
2022/02/25 10:27:43;;;;;;;46.30;7.65;;;6.90;97.20;;;;;;5044327;28;20029;-55
2022/02/25 10:30:16;;;;;;;9.55;2.35;;;6.80;97.20;;;;;;5044939;28;20036;-54
2022/02/25 10:32:47;;;;;;;10.57;2.15;;;6.70;97.40;;;;;;5045509;28;20032;-55
2022/02/25 10:35:33;;;;;;;13.77;4.47;;;6.60;99.10;;;;;;5045638;28;20116;-56
2022/02/25 10:38:19;;;;;;;12.18;2.38;;;6.50;99.90;;;;;;5041190;28;20025;-55
2022/02/25 10:40:45;;;;;;;8.57;2.60;;;6.30;99.90;;;;;;5041686;28;20596;-54
2022/02/25 10:43:26;;;;;;;11.05;1.88;;;6.10;99.90;;;;;;5043928;28;20025;-56
2022/02/25 10:45:54;;;;;;;9.45;4.00;;;5.90;99.90;;;;;;5043240;28;20028;-56
2022/02/25 10:48:31;;;;;;;8.35;2.05;;;5.80;99.90;;;;;;5043980;28;20049;-57
2022/02/25 10:51:00;;;;;;;10.07;2.55;;;5.80;99.90;;;;;;5043001;28;20091;-56
2022/02/25 10:53:35;;;;;;;15.95;2.00;;;5.80;99.90;;;;;;5043645;28;20363;-56
2022/02/25 10:56:15;;;;;;;10.50;2.30;;;5.80;99.90;;;;;;5043864;28;20037;-56
2022/02/25 10:58:51;;;;;;;14.35;4.40;;;5.80;99.90;;;;;;5042714;28;20021;-54
2022/02/25 11:01:21;;;;;;;14.55;2.10;;;5.80;99.90;;;;;;5043307;28;20029;-55
2022/02/25 11:04:05;;;;;;;16.85;2.33;;;5.80;99.90;;;;;;5044193;28;20060;-56
2022/02/25 11:06:32;;;;;;;11.18;2.40;;;5.80;99.90;;;;;;5042419;28;20060;-54
2022/02/25 11:08:58;;;;;;;7.68;1.77;;;5.80;99.90;;;;;;5039843;28;20023;-55
2022/02/25 11:11:25;;;;;;;5.70;2.75;;;5.80;99.90;;;;;;5037725;28;20520;-56
2022/02/25 11:13:51;;;;;;;11.05;2.75;;;5.80;99.90;;;;;;5044057;28;20031;-56
2022/02/25 11:16:20;;;;;;;3.70;2.30;;;5.80;99.90;;;;;;5041522;28;20029;-56
2022/02/25 11:18:48;;;;;;;7.90;2.25;;;5.70;99.90;;;;;;5041485;28;20021;-55
2022/02/25 11:21:15;;;;;;;18.20;2.33;;;5.70;99.90;;;;;;5041186;28;20025;-56
2022/02/25 11:23:43;;;;;;;12.15;1.75;;;5.70;99.90;;;;;;5044387;28;20040;-54
2022/02/25 11:26:10;;;;;;;10.43;3.05;;;5.70;99.90;;;;;;5039893;28;20036;-56
2022/02/25 11:28:37;;;;;;;6.85;2.00;;;5.70;99.90;;;;;;5043621;28;20093;-56
2022/02/25 11:31:23;;;;;;;6.47;2.40;;;5.70;99.90;;;;;;5040243;28;20029;-56
2022/02/25 11:33:51;;;;;;;9.52;2.17;;;5.90;99.90;;;;;;5044213;28;20037;-55
2022/02/25 11:36:18;;;;;;;11.95;2.47;;;5.90;99.90;;;;;;5045351;28;20074;-54
2022/02/25 11:38:46;;;;;;;22.83;3.00;;;6.00;99.90;;;;;;5036360;28;20029;-56
2022/02/25 11:41:19;;;;;;;15.30;2.42;;;6.10;99.90;;;;;;5033244;28;20028;-56
2022/02/25 11:43:50;;;;;;;10.05;3.53;;;6.20;99.90;;;;;;5041018;28;20029;-56
2022/02/25 11:46:28;;;;;;;17.38;3.65;;;6.30;99.90;;;;;;5043846;28;20036;-56
2022/02/25 11:48:56;;;;;;;12.98;2.85;;;6.40;99.90;;;;;;5043940;28;20039;-54
2022/02/25 11:51:37;;;;;;;5.45;2.10;;;6.50;99.90;;;;;;5041259;28;20041;-56
2022/02/25 11:54:21;;;;;;;13.02;2.78;;;6.60;99.90;;;;;;5043371;28;20013;-56
2022/02/25 11:57:10;;;;;;;8.65;4.15;;;6.70;99.90;;;;;;5044631;28;20108;-56
2022/02/25 11:59:35;;;;;;;12.60;2.63;;;6.70;99.90;;;;;;5037349;28;20041;-54
2022/02/25 12:02:25;;;;;;;8.40;2.80;;;6.70;99.90;;;;;;5044005;28;20074;-56
2022/02/25 12:04:53;;;;;;;6.03;2.03;;;6.80;99.90;;;;;;5042199;28;20052;-56
2022/02/25 12:07:29;;;;;;;10.50;2.78;;;6.70;99.90;;;;;;5045012;28;20474;-56
2022/02/25 12:09:56;;;;;;;9.32;3.20;;;6.80;99.90;;;;;;5041795;28;20112;-54
2022/02/25 12:12:28;;;;;;;7.55;2.28;;;6.70;99.90;;;;;;5038930;28;20154;-56
2022/02/25 12:15:12;;;;;;;4.43;1.90;;;6.80;99.90;;;;;;5041357;28;20025;-55
2022/02/25 12:17:46;;;;;;;9.32;1.90;;;6.70;99.90;;;;;;5041929;28;20033;-56
2022/02/25 12:21:04;;;;;;;12.02;2.00;;;6.60;99.90;;;;;;5042359;28;20025;-54
2022/02/25 12:23:49;;;;;;;11.90;2.65;;;6.50;99.90;;;;;;5039101;28;20048;-56
2022/02/25 12:26:15;;;;;;;8.75;2.50;;;6.50;99.90;;;;;;5041613;28;20525;-56
2022/02/25 12:28:42;;;;;;;11.00;3.08;;;6.50;99.90;;;;;;5042267;28;20067;-56
2022/02/25 12:31:12;;;;;;;6.82;2.33;;;6.60;99.90;;;;;;5041732;28;20037;-56
2022/02/25 12:33:54;;;;;;;15.13;3.55;;;6.60;99.90;;;;;;5043033;28;20119;-56
2022/02/25 12:36:29;;;;;;;8.90;4.15;;;6.70;99.90;;;;;;5040752;28;20032;-53
2022/02/25 12:39:15;;;;;;;7.80;3.78;;;6.70;99.90;;;;;;5042787;28;20029;-56
2022/02/25 12:42:10;;;;;;;14.20;4.28;;;6.80;99.90;;;;;;5043445;28;20695;-55
2022/02/25 12:44:42;;;;;;;4.95;2.20;;;6.80;99.90;;;;;;5042514;28;20064;-56
2022/02/25 12:47:09;;;;;;;8.68;2.50;;;6.80;99.70;;;;;;5039179;28;21515;-56
2022/02/25 12:49:37;;;;;;;8.15;3.38;;;6.90;99.70;;;;;;5040344;28;20025;-56
2022/02/25 12:52:09;;;;;;;12.27;2.72;;;6.80;99.70;;;;;;5041022;28;20026;-56
2022/02/25 12:54:36;;;;;;;12.50;2.72;;;6.80;99.80;;;;;;5042873;28;20043;-55
2022/02/25 12:57:04;;;;;;;5.68;2.22;;;6.80;99.70;;;;;;5043453;28;20131;-56
2022/02/25 12:59:31;;;;;;;8.48;2.30;;;6.70;99.60;;;;;;5041727;28;20760;-57
2022/02/25 13:01:58;;;;;;;5.90;1.88;;;6.80;99.80;;;;;;5040116;28;20900;-57
2022/02/25 13:04:25;;;;;;;5.55;2.20;;;7.00;99.60;;;;;;5040081;28;20029;-55
2022/02/25 13:06:53;;;;;;;5.97;2.53;;;7.00;99.50;;;;;;5040538;28;20028;-57